Terminal Aerodrome Forecast
Issued by NWS Twin Cities, MN

Home | Current Version | Previous Version | Graphics & Text | Print | Product List | Glossary On
Versions: 1 2 3 4 5 6 7 8 9 10 11 12 13 14 15 16 17 18 19 20
000
FTUS43 KMPX 150851 AAA
TAFSTC
TAF AMD
KSTC 150851Z 1509/1606 33010G16KT P6SM SCT020 BKN060 OVC070
      TEMPO 1509/1511 BKN020
     FM151100 32011KT P6SM SCT035 BKN090
     FM151900 28010KT P6SM SCT100 BKN250
     FM160200 24004KT P6SM SCT250=

USA.gov is the U.S. government's official web portal to all federal, state and local government web resources and services.